Time;durP1;ratioP1;P1;durP2;ratioP2;P2;SDS_P1;SDS_P2;PMS_P1;PMS_P2;Temp;Humidity;BMP_temperature;BMP_pressure;BME280_temperature;BME280_humidity;BME280_pressure;Samples;Min_cycle;Max_cycle;Signal;HPM_P1;HPM_P2
2022/06/19 20:21:41;;;;;;;11.20;3.80;;;;;;;23.46;32.32;101937.59;5737512;23;20111;-90
2022/06/19 20:24:31;;;;;;;10.40;2.78;;;;;;;23.46;32.25;101949.56;5035645;28;20117;-88
2022/06/19 20:27:01;;;;;;;14.88;4.63;;;;;;;23.51;32.31;101957.63;5034779;28;20026;-82
2022/06/19 20:29:35;;;;;;;13.85;4.13;;;;;;;23.46;32.57;101954.34;5016831;28;20055;-83
2022/06/19 20:32:07;;;;;;;11.00;4.10;;;;;;;23.37;32.88;101939.84;5027105;28;20382;-86
2022/06/19 20:34:33;;;;;;;12.85;4.85;;;;;;;23.43;32.49;101946.72;5019376;28;20053;-80
2022/06/19 20:36:58;;;;;;;9.48;3.90;;;;;;;23.45;32.89;101958.31;5015788;28;20061;-79
2022/06/19 20:39:27;;;;;;;19.33;4.97;;;;;;;23.38;32.81;101958.97;5016223;28;20045;-80
2022/06/19 20:44:40;;;;;;;11.60;3.85;;;;;;;23.45;32.63;101961.91;5014794;28;20542;-80
2022/06/19 20:47:14;;;;;;;12.63;3.90;;;;;;;23.46;32.64;101974.66;5029947;28;20025;-79
2022/06/19 20:49:43;;;;;;;11.60;4.30;;;;;;;23.56;32.62;101975.22;5034437;28;20426;-79
2022/06/19 20:52:18;;;;;;;9.88;3.38;;;;;;;23.44;32.63;101971.44;5025148;28;20025;-81
2022/06/19 20:54:51;;;;;;;13.75;4.05;;;;;;;23.39;32.99;101963.38;5016595;28;20083;-79
2022/06/19 20:57:16;;;;;;;18.30;3.70;;;;;;;23.46;32.88;101966.28;5034058;28;20033;-89
2022/06/19 20:59:42;;;;;;;10.77;3.63;;;;;;;23.44;32.70;101965.88;5034277;28;20032;-83
2022/06/19 21:02:09;;;;;;;10.63;3.22;;;;;;;23.37;33.26;101976.91;5033259;28;20112;-80
2022/06/19 21:04:36;;;;;;;9.35;3.55;;;;;;;23.15;33.53;101969.31;5034040;28;20103;-80
2022/06/19 21:07:14;;;;;;;10.15;3.65;;;;;;;23.14;33.37;101965.72;5031685;28;20495;-79
2022/06/19 21:09:39;;;;;;;14.00;4.65;;;;;;;23.07;33.51;101965.56;5031833;28;20045;-75
2022/06/19 21:12:08;;;;;;;17.42;4.43;;;;;;;22.88;34.15;101969.19;5030141;28;20036;-78
2022/06/19 21:14:34;;;;;;;13.18;4.28;;;;;;;22.84;33.98;101973.06;5025465;28;20026;-79
2022/06/19 21:16:59;;;;;;;9.43;3.08;;;;;;;22.77;34.17;101976.50;5009980;28;20095;-85
2022/06/19 21:19:25;;;;;;;16.88;4.07;;;;;;;22.66;34.43;101979.03;5032670;28;20519;-81
2022/06/19 21:21:51;;;;;;;18.45;4.72;;;;;;;22.63;34.60;101990.94;5031229;28;20507;-82
2022/06/19 21:24:20;;;;;;;12.00;4.60;;;;;;;22.61;34.23;101998.84;5032246;28;20422;-81
2022/06/19 21:26:46;;;;;;;11.75;3.42;;;;;;;22.60;34.38;101997.25;5028940;28;20041;-81
2022/06/19 21:29:19;;;;;;;11.35;4.13;;;;;;;22.51;34.63;102004.97;5014699;28;20095;-83
2022/06/19 21:31:44;;;;;;;12.25;4.40;;;;;;;22.52;34.36;102009.41;5014432;28;20037;-82
2022/06/19 21:34:15;;;;;;;13.63;4.20;;;;;;;22.49;34.64;102012.09;5015091;28;20506;-83
2022/06/19 21:36:41;;;;;;;17.60;5.40;;;;;;;22.45;34.70;102020.38;5014771;28;20130;-82
2022/06/19 21:39:09;;;;;;;18.80;5.30;;;;;;;22.40;34.67;102021.44;5014383;28;20031;-82
2022/06/19 21:41:42;;;;;;;11.32;4.18;;;;;;;22.39;34.58;102019.03;5014647;28;20500;-82
2022/06/19 21:44:13;;;;;;;10.93;4.38;;;;;;;22.37;34.62;102021.38;5014372;28;20025;-83
2022/06/19 21:46:39;;;;;;;13.90;4.25;;;;;;;22.24;34.89;102029.03;4996440;28;20041;-82
2022/06/19 21:49:04;;;;;;;10.80;4.30;;;;;;;22.29;34.70;102016.78;4994972;28;20024;-89
2022/06/19 21:51:33;;;;;;;10.98;4.57;;;;;;;22.20;34.66;102030.91;4996268;28;20121;-85
2022/06/19 21:54:02;;;;;;;13.37;3.77;;;;;;;22.14;34.95;102033.19;4996278;28;20064;-88
2022/06/19 21:56:29;;;;;;;13.40;3.63;;;;;;;22.05;35.38;102032.50;5010322;28;20380;-94
2022/06/19 21:58:56;;;;;;;16.42;4.28;;;;;;;22.02;35.46;102038.00;5015016;28;20029;-86
2022/06/19 22:01:23;;;;;;;13.27;4.30;;;;;;;21.88;35.60;102033.69;5013048;28;20064;-83
2022/06/19 22:03:48;;;;;;;11.13;4.43;;;;;;;21.84;35.70;102032.00;5015419;28;20025;-81
2022/06/19 22:06:31;;;;;;;11.38;3.75;;;;;;;21.73;35.91;102040.06;5020523;28;20041;-88
2022/06/19 22:08:57;;;;;;;16.98;5.22;;;;;;;21.70;35.96;102051.09;4995653;28;20026;-82
2022/06/19 22:14:20;;;;;;;14.43;4.07;;;;;;;21.65;36.18;102051.34;5014238;28;20041;-83
2022/06/19 22:16:46;;;;;;;11.82;4.07;;;;;;;21.65;36.25;102043.81;5013626;28;20494;-83
2022/06/19 22:19:12;;;;;;;12.68;4.55;;;;;;;21.69;35.84;102053.06;5014954;28;20035;-82
2022/06/19 22:21:38;;;;;;;14.40;4.15;;;;;;;21.55;36.37;102047.13;5032495;28;20126;-81
2022/06/19 22:24:05;;;;;;;11.90;3.70;;;;;;;21.38;36.79;102041.88;5032605;28;20163;-83
2022/06/19 22:26:32;;;;;;;18.95;4.97;;;;;;;21.27;37.10;102036.00;4999241;28;20036;-82
2022/06/19 22:29:00;;;;;;;9.95;3.70;;;;;;;21.23;37.17;102047.00;4994957;28;20030;-81
2022/06/19 22:31:28;;;;;;;13.77;4.63;;;;;;;21.20;37.28;102038.56;4994994;28;20084;-83
2022/06/19 22:33:54;;;;;;;10.93;3.50;;;;;;;21.16;37.24;102046.84;4995282;28;20026;-83
2022/06/19 22:36:25;;;;;;;11.07;3.95;;;;;;;21.14;37.45;102048.31;5013107;28;20060;-82
2022/06/19 22:38:55;;;;;;;16.25;5.07;;;;;;;21.01;37.66;102051.16;4995498;28;20399;-85
2022/06/19 22:41:25;;;;;;;12.63;4.45;;;;;;;21.04;37.82;102057.97;4998565;28;20033;-83
2022/06/19 22:43:51;;;;;;;13.23;3.50;;;;;;;21.05;37.75;102060.41;4995461;28;20043;-82
2022/06/19 22:46:17;;;;;;;10.63;4.70;;;;;;;21.09;37.79;102068.03;4994564;28;20553;-82
2022/06/19 22:48:43;;;;;;;10.45;4.57;;;;;;;21.11;37.85;102065.72;5013855;28;20105;-83
2022/06/19 22:51:15;;;;;;;11.38;3.92;;;;;;;21.19;37.54;102059.19;4995335;28;20026;-81
2022/06/19 22:53:44;;;;;;;13.77;4.20;;;;;;;21.22;37.54;102064.84;4997636;28;20022;-83
2022/06/19 22:56:19;;;;;;;13.25;4.35;;;;;;;21.25;37.40;102066.13;5014784;28;20087;-83
2022/06/19 23:01:41;;;;;;;12.82;4.40;;;;;;;21.05;37.71;102062.38;5032439;28;20387;-82
2022/06/19 23:04:15;;;;;;;15.15;5.22;;;;;;;21.12;37.54;102059.00;5012700;28;20028;-82
2022/06/19 23:06:41;;;;;;;14.75;4.13;;;;;;;21.04;37.69;102058.78;5031862;28;20434;-83
2022/06/19 23:09:06;;;;;;;17.63;4.75;;;;;;;21.05;37.57;102052.06;5012851;28;20035;-83
2022/06/19 23:11:33;;;;;;;12.88;4.78;;;;;;;21.03;37.58;102050.81;5014503;28;20125;-82
2022/06/19 23:13:58;;;;;;;16.65;4.10;;;;;;;21.00;37.83;102043.97;5035944;28;20480;-82
2022/06/19 23:16:28;;;;;;;16.98;5.00;;;;;;;20.98;37.74;102039.94;5018141;28;20116;-81
2022/06/19 23:18:54;;;;;;;12.95;4.38;;;;;;;20.86;37.87;102034.44;5017421;28;20136;-82
2022/06/19 23:21:20;;;;;;;12.10;4.35;;;;;;;20.79;38.22;102043.34;5034811;28;20029;-82
2022/06/19 23:23:46;;;;;;;11.48;3.83;;;;;;;20.70;38.26;102045.44;5010124;28;20014;-83
2022/06/19 23:26:16;;;;;;;10.15;3.60;;;;;;;20.72;38.31;102048.69;4998530;28;20026;-82
2022/06/19 23:28:51;;;;;;;11.77;4.28;;;;;;;20.55;38.59;102046.97;4998391;28;20384;-82
2022/06/19 23:31:24;;;;;;;18.60;5.63;;;;;;;20.58;38.59;102053.81;4998523;28;20030;-82
2022/06/19 23:33:50;;;;;;;19.42;5.10;;;;;;;20.64;38.54;102060.75;5034216;28;20030;-82
2022/06/19 23:36:20;;;;;;;12.82;4.30;;;;;;;20.74;38.33;102060.25;5035285;28;20549;-82
2022/06/19 23:38:47;;;;;;;12.02;4.78;;;;;;;20.69;38.25;102066.03;5017178;28;20029;-83
2022/06/19 23:41:14;;;;;;;13.93;4.00;;;;;;;20.70;38.60;102065.69;5013632;28;20064;-83
2022/06/19 23:43:41;;;;;;;12.18;4.53;;;;;;;20.75;37.99;102064.66;5035360;28;20037;-82
2022/06/19 23:46:11;;;;;;;12.05;5.05;;;;;;;20.74;38.24;102060.25;5017564;28;20021;-81
2022/06/19 23:48:37;;;;;;;11.48;4.32;;;;;;;20.69;38.51;102060.50;5035204;28;20029;-82
2022/06/19 23:51:04;;;;;;;10.65;4.28;;;;;;;20.59;38.38;102056.22;5004566;28;20026;-83
2022/06/19 23:53:30;;;;;;;12.38;4.57;;;;;;;20.73;38.41;102056.66;4997784;28;20480;-82
2022/06/19 23:55:57;;;;;;;10.25;4.10;;;;;;;20.72;38.52;102048.69;4997520;28;20040;-82
2022/06/19 23:58:23;;;;;;;9.85;3.65;;;;;;;20.74;38.42;102047.19;4997849;28;20058;-83
